createdAt,value
2023-02-08T00:00:15.788Z,98268.97
2023-02-08T00:02:42.893Z,98260.56
2023-02-08T00:05:09.869Z,98263.03
2023-02-08T00:07:36.780Z,98265.69
2023-02-08T00:10:06.830Z,98269.34
2023-02-08T00:12:34.675Z,98262.78
2023-02-08T00:15:01.656Z,98273.94
2023-02-08T00:17:28.988Z,98277.53
2023-02-08T00:19:55.901Z,98286.94
2023-02-08T00:22:23.040Z,98285.06
2023-02-08T00:24:51.555Z,98278.44
2023-02-08T00:27:18.598Z,98288.84
2023-02-08T00:29:45.614Z,98280.34
2023-02-08T00:32:12.801Z,98291.41
2023-02-08T00:34:39.826Z,98277.06
2023-02-08T00:37:07.086Z,98275.31
2023-02-08T00:39:34.021Z,98285.47
2023-02-08T00:42:01.026Z,98289.75
2023-02-08T00:44:28.386Z,98281.63
2023-02-08T00:46:55.587Z,98281.09
2023-02-08T00:49:22.597Z,98280.28
2023-02-08T00:51:49.582Z,98280.38
2023-02-08T00:54:18.710Z,98278.81
2023-02-08T00:56:46.449Z,98275.66
2023-02-08T00:59:13.948Z,98281.75
2023-02-08T01:01:41.579Z,98280.41
2023-02-08T01:04:08.558Z,98278.97
2023-02-08T01:06:35.530Z,98269.09
2023-02-08T01:09:02.589Z,98275.38
2023-02-08T01:11:29.579Z,98278.41
2023-02-08T01:13:57.823Z,98275.47
2023-02-08T01:16:29.176Z,98279.88
2023-02-08T01:18:57.668Z,98284.25
2023-02-08T01:21:27.819Z,98281.16
2023-02-08T01:23:56.298Z,98282.97
2023-02-08T01:26:24.484Z,98275.69
2023-02-08T01:28:52.858Z,98277.78
2023-02-08T01:31:23.330Z,98270.00
2023-02-08T01:33:50.568Z,98275.31
2023-02-08T01:36:17.962Z,98269.63
2023-02-08T01:38:45.703Z,98273.00
2023-02-08T01:41:24.617Z,98269.63
2023-02-08T01:44:13.747Z,98267.19
2023-02-08T01:46:43.252Z,98272.19
2023-02-08T01:49:29.997Z,98274.66
2023-02-08T01:52:14.900Z,98268.09
2023-02-08T01:54:53.089Z,98272.53
2023-02-08T01:57:22.364Z,98268.25
2023-02-08T01:59:55.863Z,98275.91
2023-02-08T02:02:23.843Z,98279.50
2023-02-08T02:04:51.242Z,98280.41
2023-02-08T02:07:20.354Z,98279.81
2023-02-08T02:09:53.642Z,98272.91
2023-02-08T02:12:21.502Z,98276.38
2023-02-08T02:14:51.155Z,98269.44
2023-02-08T02:17:20.097Z,98272.91
2023-02-08T02:20:05.145Z,98282.22
2023-02-08T02:22:32.178Z,98276.38
2023-02-08T02:25:25.845Z,98286.78
2023-02-08T02:28:30.463Z,98289.56
2023-02-08T02:31:00.200Z,98277.09
2023-02-08T02:33:35.554Z,98283.91
2023-02-08T02:36:21.304Z,98283.00
2023-02-08T02:39:03.565Z,98293.31
2023-02-08T02:41:52.192Z,98302.63
2023-02-08T02:44:36.944Z,98284.00
2023-02-08T02:47:19.355Z,98281.53
2023-02-08T02:49:50.766Z,98291.09
2023-02-08T02:52:28.567Z,98286.28
2023-02-08T02:55:01.377Z,98294.66
2023-02-08T02:57:32.770Z,98302.38
2023-02-08T03:00:00.389Z,98296.56
2023-02-08T03:02:28.420Z,98308.44
2023-02-08T03:04:56.149Z,98301.66
2023-02-08T03:07:42.160Z,98309.41
2023-02-08T03:10:21.914Z,98314.78
2023-02-08T03:13:07.509Z,98322.44
2023-02-08T03:15:49.461Z,98329.34
2023-02-08T03:18:36.913Z,98316.84
2023-02-08T03:21:30.000Z,98325.41
2023-02-08T03:24:47.661Z,98342.34
2023-02-08T03:27:39.270Z,98338.34
2023-02-08T03:30:24.781Z,98327.66
2023-02-08T03:32:58.912Z,98324.13
2023-02-08T03:35:28.181Z,98328.41
2023-02-08T03:37:58.027Z,98327.56
2023-02-08T03:40:30.283Z,98336.88
2023-02-08T03:43:01.723Z,98332.09
2023-02-08T03:45:38.206Z,98333.09
2023-02-08T03:48:09.079Z,98337.09
2023-02-08T03:50:40.356Z,98335.47
2023-02-08T03:53:09.444Z,98317.78
2023-02-08T03:55:39.158Z,98325.44
2023-02-08T03:58:16.139Z,98341.47
2023-02-08T04:00:48.959Z,98327.81
2023-02-08T04:03:28.948Z,98332.00
2023-02-08T04:05:56.065Z,98332.66
2023-02-08T04:08:23.184Z,98324.13
2023-02-08T04:10:50.176Z,98333.50
2023-02-08T04:13:17.149Z,98328.28
2023-02-08T04:15:44.547Z,98335.03
2023-02-08T04:18:11.686Z,98343.69
2023-02-08T04:20:38.932Z,98332.00
2023-02-08T04:23:06.127Z,98333.91
2023-02-08T04:25:33.067Z,98329.16
2023-02-08T04:28:00.140Z,98324.78
2023-02-08T04:30:27.280Z,98323.78
2023-02-08T04:32:54.278Z,98323.09
2023-02-08T04:35:21.311Z,98323.25
2023-02-08T04:37:48.344Z,98322.47
2023-02-08T04:40:15.250Z,98327.78
2023-02-08T04:42:42.264Z,98319.78
2023-02-08T04:45:10.330Z,98319.63
2023-02-08T04:47:37.198Z,98318.50
2023-02-08T04:50:04.932Z,98313.25
2023-02-08T04:52:31.981Z,98314.53
2023-02-08T04:54:58.903Z,98317.53
2023-02-08T04:57:25.843Z,98317.19
2023-02-08T04:59:52.942Z,98315.81
2023-02-08T05:02:20.284Z,98321.75
2023-02-08T05:04:47.210Z,98333.72
2023-02-08T05:07:14.201Z,98333.44
2023-02-08T05:09:41.148Z,98328.44
2023-02-08T05:12:08.334Z,98335.34
2023-02-08T05:14:35.301Z,98333.53
2023-02-08T05:17:02.239Z,98331.81
2023-02-08T05:19:29.404Z,98332.44
2023-02-08T05:21:56.424Z,98329.50
2023-02-08T05:24:23.447Z,98334.25
2023-02-08T05:26:50.585Z,98334.81
2023-02-08T05:29:17.668Z,98331.91
2023-02-08T05:31:44.734Z,98340.09
2023-02-08T05:34:12.524Z,98338.09
2023-02-08T05:36:39.612Z,98342.19
2023-02-08T05:39:07.169Z,98340.19
2023-02-08T05:41:34.221Z,98354.34
2023-02-08T05:44:01.244Z,98348.88
2023-02-08T05:46:28.333Z,98353.53
2023-02-08T05:48:55.818Z,98354.16
2023-02-08T05:51:22.919Z,98361.81
2023-02-08T05:53:49.936Z,98363.38
2023-02-08T05:56:17.021Z,98367.50
2023-02-08T05:58:44.100Z,98366.84
2023-02-08T06:01:13.098Z,98373.41
2023-02-08T06:03:40.935Z,98385.94
2023-02-08T06:06:11.349Z,98383.31
2023-02-08T06:08:39.362Z,98383.19
2023-02-08T06:11:07.488Z,98381.91
2023-02-08T06:13:34.687Z,98390.31
2023-02-08T06:16:01.814Z,98396.78
2023-02-08T06:18:28.965Z,98399.16
2023-02-08T06:20:55.980Z,98410.06
2023-02-08T06:23:25.313Z,98411.50
2023-02-08T06:25:52.897Z,98416.53
2023-02-08T06:28:19.980Z,98412.03
2023-02-08T06:30:50.439Z,98421.56
2023-02-08T06:33:18.301Z,98421.00
2023-02-08T06:36:03.461Z,98429.31
2023-02-08T06:38:30.571Z,98438.53
2023-02-08T06:40:57.701Z,98448.97
2023-02-08T06:43:25.003Z,98446.41
2023-02-08T06:45:52.051Z,98446.50
2023-02-08T06:48:19.103Z,98438.19
2023-02-08T06:50:46.159Z,98442.75
2023-02-08T06:53:13.226Z,98433.06
2023-02-08T06:55:40.286Z,98432.34
2023-02-08T06:58:07.391Z,98431.59
2023-02-08T07:00:34.397Z,98432.25
2023-02-08T07:03:01.486Z,98424.56
2023-02-08T07:05:28.711Z,98433.31
2023-02-08T07:07:55.763Z,98433.88
2023-02-08T07:10:22.759Z,98432.22
2023-02-08T07:12:49.789Z,98426.91
2023-02-08T07:15:17.121Z,98423.25
2023-02-08T07:17:44.141Z,98418.84
2023-02-08T07:20:11.898Z,98422.63
2023-02-08T07:22:40.039Z,98421.59
2023-02-08T07:25:07.745Z,98432.28
2023-02-08T07:27:34.982Z,98436.16
2023-02-08T07:30:02.442Z,98436.88
2023-02-08T07:32:29.624Z,98431.19
2023-02-08T07:34:56.662Z,98422.97
2023-02-08T07:37:23.707Z,98431.00
2023-02-08T07:39:50.785Z,98437.00
2023-02-08T07:42:17.803Z,98436.91
2023-02-08T07:44:55.384Z,98436.34
2023-02-08T07:47:22.485Z,98443.63
2023-02-08T07:49:49.589Z,98461.94
2023-02-08T07:52:16.566Z,98459.53
2023-02-08T07:54:43.564Z,98471.34
2023-02-08T07:57:10.628Z,98473.59
2023-02-08T07:59:37.565Z,98471.47
2023-02-08T08:02:04.609Z,98467.16
2023-02-08T08:04:31.746Z,98470.84
2023-02-08T08:06:58.765Z,98472.38
2023-02-08T08:09:25.904Z,98456.81
2023-02-08T08:11:52.926Z,98455.91
2023-02-08T08:14:20.031Z,98445.25
2023-02-08T08:16:47.047Z,98450.63
2023-02-08T08:19:14.065Z,98449.81
2023-02-08T08:21:41.110Z,98458.03
2023-02-08T08:24:08.250Z,98461.13
2023-02-08T08:26:35.465Z,98468.13
2023-02-08T08:29:03.270Z,98463.94
2023-02-08T08:31:31.137Z,98469.25
2023-02-08T08:33:58.361Z,98469.16
2023-02-08T08:36:25.333Z,98471.63
2023-02-08T08:38:52.305Z,98469.81
2023-02-08T08:41:19.449Z,98479.13
2023-02-08T08:43:46.556Z,98478.72
2023-02-08T08:46:13.940Z,98469.09
2023-02-08T08:48:41.009Z,98476.56
2023-02-08T08:51:08.532Z,98473.66
2023-02-08T08:53:37.242Z,98469.56
2023-02-08T08:56:05.310Z,98465.88
2023-02-08T08:58:32.526Z,98460.06
2023-02-08T09:01:00.565Z,98466.53
2023-02-08T09:03:28.822Z,98465.56
2023-02-08T09:05:56.207Z,98474.69
2023-02-08T09:08:23.274Z,98483.94
2023-02-08T09:10:50.480Z,98485.03
2023-02-08T09:13:20.137Z,98492.78
2023-02-08T09:15:48.218Z,98485.25
2023-02-08T09:18:15.264Z,98498.97
2023-02-08T09:20:42.763Z,98480.75
2023-02-08T09:23:10.008Z,98482.34
2023-02-08T09:25:37.803Z,98488.69
2023-02-08T09:28:05.251Z,98494.44
2023-02-08T09:30:32.381Z,98491.06
2023-02-08T09:32:59.501Z,98498.44
2023-02-08T09:35:26.734Z,98492.81
2023-02-08T09:37:56.019Z,98502.28
2023-02-08T09:40:26.463Z,98506.88
2023-02-08T09:43:08.293Z,98510.13
2023-02-08T09:46:00.313Z,98516.34
2023-02-08T09:48:41.327Z,98511.44
2023-02-08T09:51:26.783Z,98516.47
2023-02-08T09:54:00.345Z,98516.94
2023-02-08T09:56:33.166Z,98513.78
2023-02-08T09:59:02.207Z,98516.00
2023-02-08T10:01:32.966Z,98515.41
2023-02-08T10:04:38.015Z,98510.94
2023-02-08T10:07:05.226Z,98520.78
2023-02-08T10:09:32.525Z,98521.06
2023-02-08T10:12:31.513Z,98517.41
2023-02-08T10:15:32.287Z,98513.78
2023-02-08T10:18:24.904Z,98525.50
2023-02-08T10:21:16.864Z,98524.53
2023-02-08T10:24:04.893Z,98525.63
2023-02-08T10:26:49.183Z,98525.63
2023-02-08T10:29:31.082Z,98533.13
2023-02-08T10:32:13.084Z,98526.53
2023-02-08T10:34:51.603Z,98520.69
2023-02-08T10:37:29.145Z,98525.84
2023-02-08T10:39:57.645Z,98510.63
2023-02-08T10:42:29.044Z,98510.88
2023-02-08T10:45:23.854Z,98514.94
2023-02-08T10:48:06.121Z,98513.78
2023-02-08T10:50:42.453Z,98508.72
2023-02-08T10:53:17.066Z,98503.34
2023-02-08T10:55:46.786Z,98503.34
2023-02-08T10:58:17.426Z,98501.84
2023-02-08T11:00:45.951Z,98492.59
2023-02-08T11:03:18.222Z,98495.63
2023-02-08T11:05:45.868Z,98484.34
2023-02-08T11:08:20.139Z,98487.88
2023-02-08T11:11:12.040Z,98484.31
2023-02-08T11:13:44.923Z,98479.97
2023-02-08T11:16:24.499Z,98481.00
2023-02-08T11:18:58.644Z,98481.34
2023-02-08T11:21:35.020Z,98485.34
2023-02-08T11:24:05.941Z,98479.75
2023-02-08T11:26:40.460Z,98477.75
2023-02-08T11:29:27.114Z,98469.63
2023-02-08T11:32:00.487Z,98475.88
2023-02-08T11:34:38.891Z,98471.66
2023-02-08T11:37:28.859Z,98476.50
2023-02-08T11:39:58.365Z,98480.94
2023-02-08T11:42:37.886Z,98481.44
2023-02-08T11:45:05.984Z,98484.25
2023-02-08T11:47:37.263Z,98483.38
2023-02-08T11:50:07.644Z,98478.06
2023-02-08T11:52:41.793Z,98473.50
2023-02-08T11:55:18.108Z,98472.34
2023-02-08T11:58:01.643Z,98471.41
2023-02-08T12:00:34.345Z,98468.13
2023-02-08T12:13:45.867Z,98458.34
2023-02-08T12:16:43.074Z,98456.84
2023-02-08T12:19:47.747Z,98448.16
2023-02-08T12:22:25.192Z,98447.91
2023-02-08T12:24:58.105Z,98459.25
2023-02-08T12:27:28.574Z,98457.47
2023-02-08T12:30:10.246Z,98447.56
2023-02-08T12:33:17.104Z,98440.84
2023-02-08T12:36:22.479Z,98438.66
2023-02-08T12:39:29.160Z,98431.81
2023-02-08T12:42:24.970Z,98430.75
2023-02-08T12:45:15.335Z,98433.53
2023-02-08T12:48:04.027Z,98429.31
2023-02-08T12:50:49.449Z,98422.16
2023-02-08T12:53:25.894Z,98426.38
2023-02-08T12:55:56.614Z,98422.50
2023-02-08T12:58:43.969Z,98425.69
2023-02-08T13:01:18.277Z,98425.09
2023-02-08T13:03:56.497Z,98427.09
2023-02-08T13:06:32.378Z,98419.41
2023-02-08T13:09:05.780Z,98414.72
2023-02-08T13:11:40.379Z,98404.03
2023-02-08T13:14:34.669Z,98403.28
2023-02-08T13:17:12.790Z,98399.09
2023-02-08T13:19:54.411Z,98401.53
2023-02-08T13:22:27.017Z,98392.09
2023-02-08T13:25:06.792Z,98391.41
2023-02-08T13:27:34.452Z,98367.22
2023-02-08T13:30:02.042Z,98375.53
2023-02-08T13:32:43.563Z,98369.63
2023-02-08T13:35:27.337Z,98362.13
2023-02-08T13:38:06.594Z,98360.66
2023-02-08T13:40:37.304Z,98364.47
2023-02-08T13:43:37.294Z,98357.34
2023-02-08T13:46:06.723Z,98368.91
2023-02-08T13:49:02.991Z,98361.81
2023-02-08T13:51:32.995Z,98362.09
2023-02-08T13:54:00.504Z,98354.84
2023-02-08T13:56:49.212Z,98364.47
2023-02-08T13:59:28.388Z,98364.94
2023-02-08T14:02:23.211Z,98365.53
2023-02-08T14:04:53.265Z,98366.94
2023-02-08T14:07:45.264Z,98364.31
2023-02-08T14:10:32.144Z,98367.47
2023-02-08T14:13:09.403Z,98362.59
2023-02-08T14:15:39.544Z,98365.28
2023-02-08T14:18:25.976Z,98375.84
2023-02-08T14:21:31.429Z,98370.00
2023-02-08T14:24:05.547Z,98380.31
2023-02-08T14:26:33.020Z,98378.06
2023-02-08T14:29:02.700Z,98378.13
2023-02-08T14:31:38.661Z,98382.19
2023-02-08T14:34:06.707Z,98376.47
2023-02-08T14:36:37.287Z,98384.19
2023-02-08T14:39:29.363Z,98383.25
2023-02-08T14:42:20.544Z,98379.84
2023-02-08T14:44:57.589Z,98382.78
2023-02-08T14:47:24.602Z,98381.31
2023-02-08T14:50:27.002Z,98376.56
2023-02-08T14:53:08.045Z,98389.66
2023-02-08T14:55:49.409Z,98384.75
2023-02-08T14:58:26.220Z,98384.06
2023-02-08T15:00:55.880Z,98386.50
2023-02-08T15:03:24.700Z,98380.06
2023-02-08T15:06:15.640Z,98382.50
2023-02-08T15:08:42.971Z,98381.81
2023-02-08T15:11:24.086Z,98388.94
2023-02-08T15:13:54.570Z,98391.06
2023-02-08T15:16:24.043Z,98386.94
2023-02-08T15:18:52.451Z,98385.41
2023-02-08T15:21:23.860Z,98383.34
2023-02-08T15:24:13.724Z,98380.56
2023-02-08T15:26:50.500Z,98377.94
2023-02-08T15:29:42.888Z,98387.13
2023-02-08T15:32:18.026Z,98387.88
2023-02-08T15:34:50.602Z,98392.00
2023-02-08T15:37:19.524Z,98386.31
2023-02-08T15:39:51.200Z,98388.56
2023-02-08T15:42:21.158Z,98386.72
2023-02-08T15:44:48.304Z,98389.81
2023-02-08T15:47:28.700Z,98395.31
2023-02-08T15:49:56.545Z,98389.72
2023-02-08T15:52:27.964Z,98390.09
2023-02-08T15:54:55.200Z,98395.97
2023-02-08T15:57:34.460Z,98394.34
2023-02-08T16:00:05.408Z,98405.25
2023-02-08T16:02:36.948Z,98401.41
2023-02-08T16:05:18.119Z,98402.03
2023-02-08T16:07:46.271Z,98409.53
2023-02-08T16:10:28.169Z,98410.56
2023-02-08T16:13:01.622Z,98413.63
2023-02-08T16:15:40.862Z,98415.06
2023-02-08T16:18:39.803Z,98414.97
2023-02-08T16:21:21.672Z,98417.41
2023-02-08T16:24:00.460Z,98422.94
2023-02-08T16:26:36.109Z,98426.78
2023-02-08T16:29:06.336Z,98423.84
2023-02-08T16:31:35.672Z,98414.13
2023-02-08T16:34:13.103Z,98425.63
2023-02-08T16:36:43.647Z,98418.22
2023-02-08T16:39:13.735Z,98429.69
2023-02-08T16:42:06.529Z,98430.72
2023-02-08T16:45:13.048Z,98429.09
2023-02-08T16:48:04.238Z,98429.09
2023-02-08T16:50:40.410Z,98431.81
2023-02-08T16:53:07.908Z,98425.81
2023-02-08T16:55:37.371Z,98439.53
2023-02-08T16:58:04.429Z,98436.94
2023-02-08T17:00:35.011Z,98436.94
2023-02-08T17:03:02.610Z,98436.22
2023-02-08T17:05:37.707Z,98438.69
2023-02-08T17:08:08.156Z,98436.81
2023-02-08T17:10:35.288Z,98434.47
2023-02-08T17:13:20.742Z,98441.59
2023-02-08T17:15:50.838Z,98439.72
2023-02-08T17:18:17.994Z,98441.72
2023-02-08T17:20:45.671Z,98446.16
2023-02-08T17:23:15.663Z,98445.34
2023-02-08T17:25:43.491Z,98441.22
2023-02-08T17:28:21.227Z,98443.91
2023-02-08T17:30:49.962Z,98450.94
2023-02-08T17:33:20.489Z,98447.75
2023-02-08T17:35:49.973Z,98447.06
2023-02-08T17:38:17.858Z,98447.19
2023-02-08T17:40:45.594Z,98456.97
2023-02-08T17:43:13.764Z,98451.97
2023-02-08T17:45:42.233Z,98454.75
2023-02-08T17:48:09.832Z,98450.78
2023-02-08T17:50:37.441Z,98445.94
2023-02-08T17:53:04.654Z,98443.63
2023-02-08T17:55:31.745Z,98441.25
2023-02-08T17:57:58.764Z,98443.34
2023-02-08T18:00:26.166Z,98446.13
2023-02-08T18:02:55.600Z,98442.03
2023-02-08T18:05:27.564Z,98455.13
2023-02-08T18:07:56.452Z,98447.63
2023-02-08T18:10:24.731Z,98467.69
2023-02-08T18:12:52.017Z,98463.09
2023-02-08T18:15:21.424Z,98470.09
2023-02-08T18:17:50.649Z,98468.78
2023-02-08T18:20:18.150Z,98462.94
2023-02-08T18:22:45.845Z,98460.50
2023-02-08T18:25:14.659Z,98463.25
2023-02-08T18:27:41.972Z,98465.13
2023-02-08T18:30:10.688Z,98470.25
2023-02-08T18:32:37.743Z,98475.41
2023-02-08T18:35:07.042Z,98470.34
2023-02-08T18:37:35.521Z,98465.44
2023-02-08T18:40:02.843Z,98469.66
2023-02-08T18:42:29.840Z,98465.44
2023-02-08T18:44:57.060Z,98469.66
2023-02-08T18:47:24.238Z,98471.31
2023-02-08T18:49:57.833Z,98458.47
2023-02-08T18:52:24.963Z,98459.16
2023-02-08T18:54:52.063Z,98453.09
2023-02-08T18:57:19.589Z,98454.00
2023-02-08T18:59:46.640Z,98446.91
2023-02-08T19:02:21.376Z,98449.25
2023-02-08T19:04:48.725Z,98444.72
2023-02-08T19:07:15.749Z,98442.16
2023-02-08T19:09:44.247Z,98448.03
2023-02-08T19:12:15.730Z,98438.56
2023-02-08T19:14:43.987Z,98442.63
2023-02-08T19:17:13.594Z,98455.41
2023-02-08T19:19:41.881Z,98444.28
2023-02-08T19:22:08.895Z,98449.44
2023-02-08T19:24:35.977Z,98458.78
2023-02-08T19:27:03.482Z,98456.22
2023-02-08T19:29:30.736Z,98455.28
2023-02-08T19:31:58.514Z,98459.59
2023-02-08T19:34:25.911Z,98461.34
2023-02-08T19:36:55.130Z,98463.81
2023-02-08T19:39:27.331Z,98466.41
2023-02-08T19:41:55.198Z,98463.00
2023-02-08T19:44:23.006Z,98455.88
2023-02-08T19:46:53.101Z,98457.53
2023-02-08T19:49:21.547Z,98462.66
2023-02-08T19:51:48.630Z,98452.47
2023-02-08T19:54:18.269Z,98461.16
2023-02-08T19:56:46.129Z,98460.91
2023-02-08T19:59:23.064Z,98453.44
2023-02-08T20:01:50.683Z,98462.91
2023-02-08T20:04:17.907Z,98460.31
2023-02-08T20:06:45.344Z,98459.50
2023-02-08T20:09:13.553Z,98458.78
2023-02-08T20:11:55.864Z,98457.13
2023-02-08T20:14:24.214Z,98459.72
2023-02-08T20:16:51.408Z,98455.59
2023-02-08T20:19:18.525Z,98464.25
2023-02-08T20:21:45.624Z,98461.91
2023-02-08T20:24:13.289Z,98455.00
2023-02-08T20:26:42.648Z,98455.84
2023-02-08T20:29:10.382Z,98456.03
2023-02-08T20:31:40.920Z,98465.50
2023-02-08T20:34:11.641Z,98458.75
2023-02-08T20:36:42.805Z,98455.44
2023-02-08T20:39:13.444Z,98456.38
2023-02-08T20:41:44.463Z,98468.59
2023-02-08T20:44:17.116Z,98465.56
2023-02-08T20:46:44.821Z,98470.91
2023-02-08T20:49:15.548Z,98456.63
2023-02-08T20:51:43.556Z,98468.66
2023-02-08T20:54:11.823Z,98468.88
2023-02-08T20:56:39.450Z,98471.56
2023-02-08T20:59:08.974Z,98469.81
2023-02-08T21:01:37.145Z,98469.09
2023-02-08T21:04:04.563Z,98465.59
2023-02-08T21:06:37.326Z,98469.81
2023-02-08T21:09:08.125Z,98461.38
2023-02-08T21:11:36.313Z,98470.94
2023-02-08T21:14:04.153Z,98471.16
2023-02-08T21:16:31.971Z,98466.22
2023-02-08T21:18:59.846Z,98473.22
2023-02-08T21:21:28.233Z,98469.81
2023-02-08T21:23:56.938Z,98467.47
2023-02-08T21:26:25.144Z,98471.16
2023-02-08T21:28:53.336Z,98454.53
2023-02-08T21:31:22.411Z,98465.88
2023-02-08T21:33:50.974Z,98463.59
2023-02-08T21:36:21.514Z,98467.41
2023-02-08T21:38:48.934Z,98467.94
2023-02-08T21:41:22.442Z,98461.47
2023-02-08T21:43:51.002Z,98458.91
2023-02-08T21:46:18.778Z,98461.66
2023-02-08T21:49:04.705Z,98462.00
2023-02-08T21:51:51.012Z,98454.63
2023-02-08T21:54:41.958Z,98449.88
2023-02-08T21:57:30.511Z,98455.31
2023-02-08T21:59:59.682Z,98451.53
2023-02-08T22:02:29.364Z,98449.47
2023-02-08T22:04:59.401Z,98448.88
2023-02-08T22:07:27.839Z,98451.72
2023-02-08T22:09:55.498Z,98453.78
2023-02-08T22:12:23.369Z,98457.56
2023-02-08T22:14:51.016Z,98461.16
2023-02-08T22:17:18.583Z,98462.28
2023-02-08T22:19:45.626Z,98456.44
2023-02-08T22:22:12.728Z,98451.69
2023-02-08T22:24:39.968Z,98451.16
2023-02-08T22:27:07.089Z,98453.03
2023-02-08T22:29:34.520Z,98446.34
2023-02-08T22:32:01.691Z,98450.84
2023-02-08T22:34:28.861Z,98451.22
2023-02-08T22:36:55.991Z,98447.97
2023-02-08T22:39:23.153Z,98455.09
2023-02-08T22:41:50.245Z,98453.47
2023-02-08T22:44:17.325Z,98450.19
2023-02-08T22:46:44.358Z,98450.38
2023-02-08T22:49:11.626Z,98447.00
2023-02-08T22:51:38.776Z,98453.94
2023-02-08T22:54:05.826Z,98455.00
2023-02-08T22:56:34.027Z,98459.38
2023-02-08T22:59:01.151Z,98450.13
2023-02-08T23:01:28.571Z,98450.25
2023-02-08T23:03:55.628Z,98456.31
2023-02-08T23:06:22.766Z,98457.47
2023-02-08T23:08:49.951Z,98451.22
2023-02-08T23:11:17.862Z,98453.97
2023-02-08T23:13:44.977Z,98443.91
2023-02-08T23:16:14.112Z,98448.22
2023-02-08T23:18:42.421Z,98440.81
2023-02-08T23:21:16.787Z,98431.41
2023-02-08T23:23:44.403Z,98433.22
2023-02-08T23:26:15.036Z,98423.81
2023-02-08T23:28:42.161Z,98424.84
2023-02-08T23:31:11.689Z,98429.22
2023-02-08T23:33:39.861Z,98428.31
2023-02-08T23:36:07.421Z,98428.22
2023-02-08T23:38:35.320Z,98426.47
2023-02-08T23:41:07.506Z,98424.72
2023-02-08T23:43:34.948Z,98422.38
2023-02-08T23:46:09.325Z,98426.66
2023-02-08T23:48:39.020Z,98425.00
2023-02-08T23:51:07.603Z,98427.50
2023-02-08T23:53:37.076Z,98416.34
2023-02-08T23:56:19.805Z,98404.44
2023-02-08T23:58:49.046Z,98419.50
